KISP/ISP METAR and TAF weather

Enter ICAO airport designator
Station Type Date Time Source
KISP METAR 2021/03/03 20:56 UTC NOAA

KISP 032056Z 27008KT 10SM CLR 11/M05 A2979 RMK AO2 SLP088 T01061050 56014


Station Type Date Time Source
KISP Decoded METAR 2021/03/03 20:56 UTC NOAA

ISLIP LONG ISLAND MAC ART, NY, United States (KISP) 40-48N 073-06W 43M
Mar 03, 2021 - 03:56 PM EST / 2021.03.03 2056 UTC
Wind: from the W (270 degrees) at 9 MPH (8 KT):0
Visibility: 10 mile(s):0
Sky conditions: clear
Temperature: 51.1 F (10.6 C)
Dew Point: 23.0 F (-5.0 C)
Relative Humidity: 32%
Pressure (altimeter): 29.79 in. Hg (1008 hPa)
Pressure tendency: 0.04 inches (1.4 hPa) lower than three hours ago
ob: KISP 032056Z 27008KT 10SM CLR 11/M05 A2979 RMK AO2 SLP088 T01061050 56014
cycle: 21

Station Type Date Time Source
KISP TAF 2021/03/03 21:36 UTC NOAA

TAF
AMD KISP 032033Z 0321/0418 27013G17KT P6SM SKC
FM032200 28008KT P6SM SCT040
FM040000 29005KT P6SM BKN040
FM040300 32005KT P6SM SCT040
FM041200 32010KT P6SM SKC
FM041500 32012G18KT P6SM FEW130

Example: see airport list